EEKA 
Kärdla Airport
Kärdla, Estonia 
ICAOStatus
EEKAOperational
LatitudeLongitude
58° 59' 26" N22° 49' 50" E
58.99075622.830733
Local Time (DST+3)UTC (GMT+2)
04-24-2014 05:05 am04-24-2014 02:05
Sunrise-SunsetLocalUTC
Begin Civil Twilight04:58 am01:58
Sunrise05:46 am02:46
Sunset09:06 pm18:06
End Civil Twilight09:54 pm18:54

Current Weather

METARObservedFlight Conditions

EEKA 231550Z 04007KT 360V070 CAVOK 09/M04 Q1030

Wed, Apr 23, 2014 @ 15:50 UTC(Z)

(10 Hours, 15 Minutes ago)

VFR

(Visual Flight Rules)

WindVisibilityCloudsConditions
040° at 7 knots (13 kph)
10 km or more
  • Clear skies
  • No significant weather
TemperaturesReadingsPrecipitation
Current Temp9°C (48°F)
Dewpoint-4°C (25°F)
Humidity40%
Altimeter30.41"Hg
Sea Level Pressure1030mb
Field Elevation13.12'
None Recorded

Additional weather within a 92.6km radius of EEKA

Location METAR
EEKE

86.5km S (192°)

15 minutes ago
VFR VFR    MVFR MVFR    IFR IFR    LIFR LIFR    Unknown Unknown

Previous 24 hour Weather Graphs

  Loading...

CheckWX.com is intended as a tool to help pilots better visualize weather data.   It is not intended as a substitute for an official weather briefing obtained from a Flight Service Station.
CheckWX.com does not meet the FAA requirements for an official pre-flight weather briefing.   Therefore, it's important that pilots still call and obtain an official FSS pre-flight weather briefing.